Time;durP1;ratioP1;P1;durP2;ratioP2;P2;SDS_P1;SDS_P2;PMS_P1;PMS_P2;Temp;Humidity;BMP_temperature;BMP_pressure;BME280_temperature;BME280_humidity;BME280_pressure;Samples;Min_cycle;Max_cycle;Signal;HPM_P1;HPM_P2
2024/04/09 00:02:08;;;;;;;2.75;1.80;;;;;;;12.91;41.95;95314.22;5477080;26;19998;-72
2024/04/09 00:04:34;;;;;;;3.85;2.05;;;;;;;12.86;42.29;95314.75;5475002;26;20005;-73
2024/04/09 00:07:00;;;;;;;3.47;1.92;;;;;;;12.75;42.24;95307.59;5476680;25;19998;-73
2024/04/09 00:09:29;;;;;;;4.13;1.92;;;;;;;12.79;42.51;95309.44;5476275;26;20006;-73
2024/04/09 00:11:55;;;;;;;4.10;2.65;;;;;;;12.71;42.79;95306.16;5475706;26;19998;-73
2024/04/09 00:14:21;;;;;;;4.60;1.77;;;;;;;12.70;42.75;95308.13;5476966;26;20009;-73
2024/04/09 00:16:47;;;;;;;6.85;2.30;;;;;;;12.66;42.89;95309.47;5475058;26;20312;-73
2024/04/09 00:19:14;;;;;;;4.47;1.80;;;;;;;12.56;43.32;95297.56;5476750;26;19999;-73
2024/04/09 00:21:39;;;;;;;3.75;1.42;;;;;;;12.56;43.49;95308.59;5474939;26;20409;-73
2024/04/09 00:24:07;;;;;;;2.33;1.60;;;;;;;12.53;43.16;95311.44;5476727;26;20369;-73
2024/04/09 00:26:32;;;;;;;4.28;1.88;;;;;;;12.53;43.54;95303.94;5476113;26;20065;-73
2024/04/09 00:28:58;;;;;;;3.30;2.08;;;;;;;12.49;43.55;95300.50;5476318;25;20006;-72
2024/04/09 00:31:24;;;;;;;3.92;2.38;;;;;;;12.44;43.70;95298.31;5476611;26;20005;-73
2024/04/09 00:33:51;;;;;;;4.35;2.35;;;;;;;12.44;43.67;95290.81;5473264;26;20071;-74
2024/04/09 00:36:17;;;;;;;2.92;1.77;;;;;;;12.34;44.09;95294.69;5476833;26;20385;-72
2024/04/09 00:38:46;;;;;;;3.38;1.70;;;;;;;12.30;43.78;95294.00;5474717;26;19998;-73
2024/04/09 00:41:13;;;;;;;2.80;1.60;;;;;;;12.24;44.11;95301.28;5476437;25;19998;-72
2024/04/09 00:43:38;;;;;;;4.10;1.73;;;;;;;12.21;44.56;95299.38;5474540;25;19999;-72
2024/04/09 00:46:05;;;;;;;4.15;1.90;;;;;;;11.91;44.46;95300.63;5476301;26;20005;-73
2024/04/09 00:48:30;;;;;;;4.95;1.65;;;;;;;11.92;44.20;95300.19;5475947;26;20006;-73
2024/04/09 00:50:56;;;;;;;3.10;1.90;;;;;;;11.89;44.28;95298.31;5472910;26;20397;-74
2024/04/09 00:53:22;;;;;;;6.63;1.65;;;;;;;11.92;44.24;95308.47;5476358;26;20010;-73
2024/04/09 00:55:49;;;;;;;2.78;1.58;;;;;;;11.88;44.42;95301.53;5474469;25;20002;-73
2024/04/09 00:58:17;;;;;;;4.30;1.63;;;;;;;11.85;44.39;95297.66;5476456;25;20043;-72
2024/04/09 01:00:43;;;;;;;4.90;1.80;;;;;;;11.80;44.57;95300.13;5474037;26;19999;-72
2024/04/09 01:03:10;;;;;;;6.05;1.95;;;;;;;11.90;44.46;95304.59;5476051;26;20069;-72
2024/04/09 01:05:36;;;;;;;6.05;2.00;;;;;;;11.86;44.34;95303.94;5475298;25;20006;-73
2024/04/09 01:08:03;;;;;;;3.13;1.75;;;;;;;11.83;44.97;95304.81;5475125;26;20009;-72
2024/04/09 01:10:28;;;;;;;3.85;1.60;;;;;;;11.79;44.84;95299.38;5476004;26;20006;-73
2024/04/09 01:12:53;;;;;;;4.82;2.00;;;;;;;11.80;45.09;95298.16;5473908;25;20104;-73
2024/04/09 01:15:19;;;;;;;3.88;1.50;;;;;;;11.80;44.86;95302.88;5475972;26;20419;-73
2024/04/09 01:17:44;;;;;;;5.93;2.08;;;;;;;11.73;45.26;95306.63;5473768;26;20065;-73
2024/04/09 01:20:13;;;;;;;4.30;1.65;;;;;;;11.73;44.91;95298.34;5476254;26;19998;-73
2024/04/09 01:22:38;;;;;;;5.22;1.88;;;;;;;11.73;45.27;95289.31;5474722;26;20010;-73
2024/04/09 01:25:04;;;;;;;4.63;1.67;;;;;;;11.71;45.18;95295.28;5475328;26;20335;-71
2024/04/09 01:27:33;;;;;;;3.78;2.05;;;;;;;11.69;45.48;95294.91;5475727;26;20007;-71
2024/04/09 01:30:00;;;;;;;4.15;2.00;;;;;;;11.68;45.71;95301.63;5473786;26;20360;-71
2024/04/09 01:32:26;;;;;;;4.03;1.50;;;;;;;11.65;45.29;95299.75;5476162;26;20429;-72
2024/04/09 01:34:52;;;;;;;2.10;1.60;;;;;;;11.61;45.33;95294.34;5473321;26;19994;-73
2024/04/09 01:37:17;;;;;;;5.63;1.90;;;;;;;11.56;45.63;95285.84;5475305;25;20259;-74
2024/04/09 01:39:45;;;;;;;3.20;1.77;;;;;;;11.54;45.57;95300.06;5473721;26;20251;-74
2024/04/09 01:42:11;;;;;;;5.38;1.92;;;;;;;11.48;45.54;95295.50;5475328;26;19994;-73
2024/04/09 01:44:37;;;;;;;5.35;2.30;;;;;;;11.39;45.87;95280.38;5475022;26;19994;-72
2024/04/09 01:47:05;;;;;;;3.70;1.80;;;;;;;11.43;45.94;95292.06;5473412;26;20009;-72
2024/04/09 01:49:31;;;;;;;3.53;1.73;;;;;;;11.39;45.94;95291.38;5474878;25;20013;-72
2024/04/09 01:51:56;;;;;;;4.20;2.08;;;;;;;11.39;46.01;95287.84;5472818;26;20440;-72
2024/04/09 01:54:22;;;;;;;4.18;1.80;;;;;;;11.35;46.20;95285.19;5475054;26;20005;-73
2024/04/09 01:56:48;;;;;;;7.78;2.00;;;;;;;11.34;45.95;95283.66;5473065;25;20008;-73
2024/04/09 01:59:14;;;;;;;3.00;1.77;;;;;;;11.30;46.12;95274.72;5474827;26;20005;-73
2024/04/09 02:01:42;;;;;;;4.47;1.92;;;;;;;11.28;46.34;95279.88;5474507;26;20039;-73
2024/04/09 02:04:07;;;;;;;4.20;2.42;;;;;;;11.27;46.26;95281.09;5473920;26;20005;-73
2024/04/09 02:06:33;;;;;;;5.88;2.08;;;;;;;11.24;46.37;95273.72;5473092;26;20019;-73
2024/04/09 02:08:58;;;;;;;6.97;2.50;;;;;;;11.24;46.53;95281.16;5472908;25;20353;-73
2024/04/09 02:11:28;;;;;;;5.55;2.00;;;;;;;11.23;46.39;95280.41;5474756;25;19994;-73
2024/04/09 02:13:55;;;;;;;3.63;1.90;;;;;;;11.17;46.53;95277.41;5472795;26;20009;-73
2024/04/09 02:16:21;;;;;;;5.72;1.98;;;;;;;11.12;46.61;95274.41;5472298;26;20009;-73
2024/04/09 02:18:47;;;;;;;4.13;2.00;;;;;;;11.11;46.45;95278.34;5473749;26;20010;-73
2024/04/09 02:21:15;;;;;;;6.90;2.30;;;;;;;11.07;46.65;95280.44;5474000;25;19995;-72
2024/04/09 02:23:44;;;;;;;7.63;2.50;;;;;;;11.09;46.47;95286.28;5474680;26;20022;-72
2024/04/09 02:26:10;;;;;;;6.22;2.42;;;;;;;11.04;46.90;95281.28;5473876;25;20087;-72
2024/04/09 02:28:35;;;;;;;6.60;2.55;;;;;;;11.01;46.82;95282.94;5474931;26;19994;-72
2024/04/09 02:31:04;;;;;;;7.18;2.33;;;;;;;10.98;46.98;95275.53;5470582;25;20002;-74
2024/04/09 02:33:29;;;;;;;6.10;2.20;;;;;;;10.98;46.84;95283.78;5473168;26;20005;-73
2024/04/09 02:36:02;;;;;;;8.73;2.72;;;;;;;11.01;46.62;95277.44;5473504;26;20010;-73
2024/04/09 02:38:29;;;;;;;8.30;2.92;;;;;;;10.96;47.06;95275.22;5471916;26;20348;-72
2024/04/09 02:40:54;;;;;;;4.95;2.03;;;;;;;10.91;46.83;95275.72;5474588;26;20433;-73
2024/04/09 02:43:21;;;;;;;7.43;2.60;;;;;;;10.87;47.45;95262.06;5471315;25;20002;-72
2024/04/09 02:45:48;;;;;;;6.50;3.15;;;;;;;10.89;47.41;95265.13;5474413;26;19994;-73
2024/04/09 02:48:15;;;;;;;7.05;2.38;;;;;;;10.84;47.11;95265.69;5472647;26;20006;-73
2024/04/09 02:50:40;;;;;;;6.88;2.30;;;;;;;10.83;46.86;95261.34;5474156;26;19999;-74
2024/04/09 02:53:06;;;;;;;10.57;2.83;;;;;;;10.78;47.22;95267.41;5472925;25;20004;-73
2024/04/09 02:55:32;;;;;;;6.00;2.55;;;;;;;10.73;46.87;95270.66;5473932;26;19995;-73
2024/04/09 02:57:58;;;;;;;6.63;2.55;;;;;;;10.68;47.31;95262.16;5474124;26;20120;-73
2024/04/09 03:00:23;;;;;;;8.27;2.67;;;;;;;10.67;47.51;95266.88;5472608;26;20038;-73
2024/04/09 03:02:53;;;;;;;7.72;3.17;;;;;;;10.62;47.47;95272.88;5474041;26;19995;-73
2024/04/09 03:05:27;;;;;;;6.95;3.00;;;;;;;10.57;47.96;95270.66;5472097;26;19994;-73
2024/04/09 03:07:52;;;;;;;8.18;2.97;;;;;;;10.58;47.91;95270.22;5473959;26;20006;-73
2024/04/09 03:10:18;;;;;;;14.30;3.10;;;;;;;10.53;47.87;95273.47;5472285;26;20022;-73
2024/04/09 03:12:43;;;;;;;5.00;2.75;;;;;;;10.49;48.42;95269.25;5473686;26;19995;-73
2024/04/09 03:15:09;;;;;;;7.47;2.72;;;;;;;10.50;48.26;95268.84;5473488;26;19994;-73
2024/04/09 03:17:35;;;;;;;4.65;2.03;;;;;;;10.47;47.98;95260.66;5472371;26;20408;-73
2024/04/09 03:20:00;;;;;;;9.38;2.95;;;;;;;10.42;48.07;95278.44;5473381;26;20069;-73
2024/04/09 03:22:25;;;;;;;6.43;2.70;;;;;;;10.39;48.03;95282.06;5471998;26;20060;-73
2024/04/09 03:24:51;;;;;;;6.43;2.50;;;;;;;10.35;48.17;95273.88;5473636;26;20343;-74
2024/04/09 03:27:16;;;;;;;4.20;2.10;;;;;;;10.33;48.26;95281.00;5472619;26;19994;-73
2024/04/09 03:29:42;;;;;;;7.30;2.58;;;;;;;10.29;48.38;95283.06;5477585;26;20433;-73
2024/04/09 03:32:07;;;;;;;6.78;2.80;;;;;;;10.26;48.11;95283.91;5475956;26;19994;-73
2024/04/09 03:34:34;;;;;;;7.45;2.83;;;;;;;10.26;48.30;95284.66;5475860;25;20005;-73
2024/04/09 03:37:00;;;;;;;4.82;3.08;;;;;;;10.19;48.30;95281.28;5476935;26;20014;-73
2024/04/09 03:39:25;;;;;;;7.60;2.95;;;;;;;10.16;48.49;95288.41;5475267;26;19999;-73
2024/04/09 03:41:50;;;;;;;6.10;2.35;;;;;;;10.12;48.64;95298.69;5475119;26;20009;-73
2024/04/09 03:44:16;;;;;;;10.85;2.67;;;;;;;10.10;48.42;95287.38;5475504;26;20492;-74
2024/04/09 03:46:41;;;;;;;5.72;2.42;;;;;;;10.13;48.46;95291.22;5477257;26;19995;-72
2024/04/09 03:49:07;;;;;;;6.05;2.42;;;;;;;10.07;48.44;95280.75;5475080;26;19995;-73
2024/04/09 03:51:32;;;;;;;4.22;2.30;;;;;;;10.09;48.75;95285.81;5476198;25;20001;-73
2024/04/09 03:53:58;;;;;;;6.63;2.25;;;;;;;10.02;48.91;95288.72;5476505;26;20006;-73
2024/04/09 03:56:23;;;;;;;5.28;2.45;;;;;;;10.04;48.92;95289.84;5476019;26;20005;-72
2024/04/09 03:58:52;;;;;;;9.45;2.83;;;;;;;10.05;48.89;95301.59;5477263;25;20404;-74
2024/04/09 04:01:17;;;;;;;5.93;3.00;;;;;;;9.95;49.13;95300.63;5473105;25;19994;-73
2024/04/09 04:03:47;;;;;;;10.25;3.45;;;;;;;9.96;49.27;95304.13;5473553;26;20469;-73
2024/04/09 04:06:13;;;;;;;9.02;3.30;;;;;;;9.95;48.95;95308.84;5475307;26;20027;-73
2024/04/09 04:08:40;;;;;;;14.43;4.10;;;;;;;9.96;49.27;95315.13;5474710;26;20013;-73
2024/04/09 04:11:10;;;;;;;10.10;3.80;;;;;;;9.93;49.09;95307.75;5475767;26;19998;-73
2024/04/09 04:13:37;;;;;;;7.05;3.45;;;;;;;9.95;49.54;95314.34;5475548;26;20029;-73
2024/04/09 04:16:06;;;;;;;17.27;5.10;;;;;;;9.93;49.32;95310.50;5476292;26;20018;-74
2024/04/09 04:18:36;;;;;;;13.95;4.20;;;;;;;9.99;49.72;95320.56;5474644;26;19998;-73
2024/04/09 04:21:03;;;;;;;13.38;4.88;;;;;;;9.94;49.72;95320.28;5476248;26;20009;-73
2024/04/09 04:23:28;;;;;;;11.02;4.72;;;;;;;9.97;49.83;95320.19;5475211;26;20302;-73
2024/04/09 04:26:11;;;;;;;15.70;5.28;;;;;;;9.97;49.94;95316.66;5476150;26;19998;-73
2024/04/09 04:28:41;;;;;;;15.15;5.13;;;;;;;9.92;49.42;95323.44;5476699;26;19994;-73
2024/04/09 04:31:08;;;;;;;12.60;4.97;;;;;;;9.86;49.58;95300.41;5474791;26;20588;-73
2024/04/09 04:33:34;;;;;;;12.05;5.20;;;;;;;9.97;49.70;95313.91;5476645;25;20014;-73
2024/04/09 04:35:59;;;;;;;16.30;5.60;;;;;;;10.01;49.95;95318.16;5474160;25;20317;-73
2024/04/09 04:38:25;;;;;;;11.43;5.10;;;;;;;10.01;49.59;95320.91;5476186;25;20429;-73
2024/04/09 04:40:50;;;;;;;22.17;7.00;;;;;;;10.00;49.71;95313.09;5473871;26;20077;-73
2024/04/09 04:43:16;;;;;;;15.02;5.13;;;;;;;10.00;49.67;95319.34;5476172;25;19995;-73
2024/04/09 04:45:45;;;;;;;28.25;6.00;;;;;;;10.04;49.83;95317.31;5475959;26;20002;-72
2024/04/09 04:48:11;;;;;;;14.35;5.53;;;;;;;10.03;49.90;95312.22;5474470;25;20059;-72
2024/04/09 04:50:37;;;;;;;18.55;6.43;;;;;;;10.05;50.32;95316.09;5476028;26;20000;-71
2024/04/09 04:53:03;;;;;;;17.00;6.53;;;;;;;10.10;50.25;95326.59;5473794;25;19998;-72
2024/04/09 04:55:29;;;;;;;13.13;6.60;;;;;;;10.13;50.26;95319.47;5476167;25;19998;-72
2024/04/09 04:57:55;;;;;;;13.55;5.63;;;;;;;10.15;50.07;95333.56;5474084;26;20073;-72
2024/04/09 05:00:21;;;;;;;17.95;6.28;;;;;;;10.16;50.38;95324.13;5477375;25;20013;-72
2024/04/09 05:02:48;;;;;;;13.10;5.68;;;;;;;10.16;50.23;95321.38;5477124;25;20002;-72
2024/04/09 05:05:13;;;;;;;27.42;6.45;;;;;;;10.21;50.16;95329.13;5475336;25;20005;-72
2024/04/09 05:07:39;;;;;;;19.92;6.72;;;;;;;10.25;50.56;95332.59;5476271;26;19999;-72
2024/04/09 05:10:05;;;;;;;20.45;7.90;;;;;;;10.29;50.50;95330.53;5473575;26;20006;-73
2024/04/09 05:12:32;;;;;;;31.70;15.15;;;;;;;10.25;50.40;95327.09;5475939;26;20396;-72
2024/04/09 05:14:57;;;;;;;39.10;16.42;;;;;;;10.33;50.51;95330.47;5471999;26;19994;-73
2024/04/09 05:17:23;;;;;;;31.25;16.90;;;;;;;10.38;50.46;95327.22;5475597;25;20030;-72
2024/04/09 05:19:51;;;;;;;34.05;14.57;;;;;;;10.43;50.32;95317.69;5474614;25;20424;-72
2024/04/09 05:22:18;;;;;;;27.50;13.77;;;;;;;10.51;50.56;95333.59;5475053;26;19994;-73
2024/04/09 05:24:47;;;;;;;25.15;11.70;;;;;;;10.55;50.08;95326.06;5475664;25;19994;-72
2024/04/09 05:27:12;;;;;;;30.67;10.23;;;;;;;10.64;50.29;95328.22;5473829;25;20113;-73
2024/04/09 05:29:38;;;;;;;16.23;7.85;;;;;;;10.70;49.90;95326.50;5474071;26;19995;-73
2024/04/09 05:32:04;;;;;;;19.23;7.03;;;;;;;10.79;49.85;95321.19;5473425;26;19998;-72
2024/04/09 05:34:30;;;;;;;18.42;6.50;;;;;;;10.84;49.60;95317.16;5475857;26;20010;-72
2024/04/09 05:36:55;;;;;;;21.73;8.23;;;;;;;10.92;49.49;95326.00;5473836;26;20486;-72
2024/04/09 05:39:21;;;;;;;21.73;8.13;;;;;;;10.94;49.43;95307.09;5473036;26;20058;-73
2024/04/09 05:41:46;;;;;;;18.20;6.97;;;;;;;11.08;48.89;95318.53;5474841;26;20002;-72
2024/04/09 05:44:12;;;;;;;21.15;6.25;;;;;;;11.17;48.47;95320.66;5471964;25;19999;-73
2024/04/09 05:46:40;;;;;;;18.95;6.38;;;;;;;11.22;48.34;95331.16;5475391;26;19995;-73
2024/04/09 05:49:05;;;;;;;16.27;5.35;;;;;;;11.20;48.08;95324.53;5472936;26;20014;-73
2024/04/09 05:51:31;;;;;;;10.27;5.45;;;;;;;11.27;48.15;95319.63;5473715;26;20065;-72
2024/04/09 05:53:57;;;;;;;13.73;5.28;;;;;;;11.31;48.05;95325.03;5473500;25;20018;-72
2024/04/09 05:56:22;;;;;;;9.43;4.28;;;;;;;11.36;47.77;95322.53;5475557;26;20066;-72
2024/04/09 05:58:48;;;;;;;9.43;4.65;;;;;;;11.49;47.63;95321.84;5474201;25;20479;-72
2024/04/09 06:01:14;;;;;;;5.90;3.83;;;;;;;11.55;47.37;95336.63;5473959;25;20727;-73
2024/04/09 06:03:40;;;;;;;11.68;4.47;;;;;;;11.62;47.07;95333.66;5475427;26;19994;-73
2024/04/09 06:06:05;;;;;;;11.77;4.05;;;;;;;11.68;47.07;95340.97;5473012;26;20008;-73
2024/04/09 06:08:30;;;;;;;8.13;4.47;;;;;;;11.65;47.27;95341.06;5475167;26;20432;-73
2024/04/09 06:10:56;;;;;;;10.13;4.38;;;;;;;11.75;47.46;95336.47;5473349;26;19994;-73
2024/04/09 06:13:21;;;;;;;8.10;3.95;;;;;;;11.77;47.21;95336.81;5475486;25;19998;-73
2024/04/09 06:15:47;;;;;;;8.68;3.60;;;;;;;11.81;46.83;95335.53;5473856;26;20002;-73
2024/04/09 06:18:13;;;;;;;12.07;4.78;;;;;;;11.93;46.32;95339.56;5474325;25;20065;-73
2024/04/09 06:20:38;;;;;;;7.55;3.92;;;;;;;11.89;46.13;95325.88;5474581;26;20392;-74
2024/04/09 06:23:03;;;;;;;10.65;4.55;;;;;;;11.96;46.08;95333.94;5473198;26;19998;-73
2024/04/09 06:25:29;;;;;;;10.25;5.00;;;;;;;12.02;45.95;95331.41;5474622;25;20292;-73
2024/04/09 06:27:54;;;;;;;10.27;4.38;;;;;;;12.03;45.87;95324.69;5472545;26;20002;-73
2024/04/09 06:30:19;;;;;;;9.52;4.30;;;;;;;12.03;45.72;95324.69;5474922;26;20005;-73
2024/04/09 06:32:45;;;;;;;6.18;3.90;;;;;;;12.08;45.82;95326.16;5472958;26;20309;-73
2024/04/09 06:35:11;;;;;;;8.95;4.65;;;;;;;12.18;45.23;95336.09;5474522;26;20069;-74
2024/04/09 06:37:38;;;;;;;7.93;4.43;;;;;;;12.21;45.29;95340.72;5473640;26;19998;-74
2024/04/09 06:40:05;;;;;;;10.57;4.68;;;;;;;12.26;45.23;95339.41;5473424;26;19998;-73
2024/04/09 06:42:31;;;;;;;9.48;4.10;;;;;;;12.32;45.09;95340.41;5474418;26;19998;-73
2024/04/09 06:44:57;;;;;;;10.32;4.35;;;;;;;12.45;45.07;95330.97;5472607;25;20435;-73
2024/04/09 06:47:22;;;;;;;8.57;4.40;;;;;;;12.50;44.87;95326.88;5474636;26;19998;-73
2024/04/09 06:49:48;;;;;;;8.60;4.22;;;;;;;12.57;44.13;95332.19;5472243;26;19998;-73
2024/04/09 06:52:14;;;;;;;7.97;4.18;;;;;;;12.65;44.20;95327.22;5473917;26;20437;-73
2024/04/09 06:54:39;;;;;;;11.07;4.22;;;;;;;12.71;43.97;95333.72;5473220;26;20392;-74
2024/04/09 06:57:04;;;;;;;12.30;4.70;;;;;;;12.84;43.82;95320.69;5473704;25;20044;-73
2024/04/09 06:59:30;;;;;;;6.82;4.57;;;;;;;12.98;43.51;95330.53;5473732;26;19998;-73
2024/04/09 07:01:55;;;;;;;10.15;4.40;;;;;;;13.01;43.47;95321.34;5470557;26;19999;-73
2024/04/09 07:04:21;;;;;;;8.88;3.95;;;;;;;13.08;43.87;95323.13;5474176;25;20000;-73
2024/04/09 07:06:46;;;;;;;9.02;4.68;;;;;;;13.17;43.73;95318.47;5472316;26;20448;-73
2024/04/09 07:09:16;;;;;;;8.20;5.13;;;;;;;13.33;43.07;95314.06;5473947;26;20296;-73
2024/04/09 07:11:45;;;;;;;9.20;4.25;;;;;;;13.46;42.88;95314.78;5472191;26;20002;-74
2024/04/09 07:14:13;;;;;;;10.27;4.35;;;;;;;13.54;42.70;95311.34;5472068;26;20005;-73
2024/04/09 07:16:41;;;;;;;8.27;4.03;;;;;;;13.59;42.70;95307.25;5473195;26;20013;-73
2024/04/09 07:19:06;;;;;;;7.93;3.28;;;;;;;13.67;42.70;95307.75;5472136;25;19998;-73
2024/04/09 07:21:32;;;;;;;8.65;4.03;;;;;;;13.75;42.21;95309.03;5473702;26;20328;-73
2024/04/09 07:23:57;;;;;;;9.75;3.83;;;;;;;13.88;41.95;95307.03;5471592;26;20332;-74
2024/04/09 07:26:23;;;;;;;10.27;4.28;;;;;;;14.00;41.91;95308.19;5474065;26;19995;-73
2024/04/09 07:28:48;;;;;;;9.20;4.03;;;;;;;14.08;41.95;95304.69;5472055;25;20332;-73
2024/04/09 07:31:15;;;;;;;7.90;4.13;;;;;;;14.18;41.55;95308.28;5473259;25;20009;-74
2024/04/09 07:33:41;;;;;;;7.22;3.90;;;;;;;14.32;41.49;95307.75;5472848;26;20082;-74
2024/04/09 07:36:06;;;;;;;8.40;3.67;;;;;;;14.44;41.18;95308.88;5472496;26;20340;-73
2024/04/09 07:38:31;;;;;;;11.38;4.32;;;;;;;14.60;40.65;95302.38;5473785;26;20014;-73
2024/04/09 07:40:57;;;;;;;8.80;4.50;;;;;;;14.71;40.33;95301.97;5471831;26;20027;-73
2024/04/09 07:43:22;;;;;;;9.52;4.30;;;;;;;14.80;40.33;95302.78;5473691;26;20071;-74
2024/04/09 07:45:54;;;;;;;8.32;3.83;;;;;;;14.96;40.19;95301.00;5471707;25;20425;-73
2024/04/09 07:48:20;;;;;;;13.32;4.53;;;;;;;15.09;39.89;95301.66;5473030;26;20452;-73
2024/04/09 07:50:45;;;;;;;11.00;5.18;;;;;;;15.29;38.91;95290.16;5471719;26;19995;-74
2024/04/09 07:53:11;;;;;;;10.32;4.32;;;;;;;15.46;39.19;95299.72;5472392;26;20013;-74
2024/04/09 07:55:37;;;;;;;6.05;3.55;;;;;;;15.54;39.14;95289.88;5472804;26;19999;-73
2024/04/09 07:58:03;;;;;;;11.50;4.30;;;;;;;15.68;38.74;95293.31;5471537;26;19994;-73
2024/04/09 08:00:29;;;;;;;8.38;3.50;;;;;;;15.83;38.21;95295.00;5472845;25;19994;-74
2024/04/09 08:02:54;;;;;;;11.13;4.00;;;;;;;15.98;37.72;95289.59;5471827;26;20291;-73
2024/04/09 08:05:22;;;;;;;13.35;4.75;;;;;;;16.13;37.51;95289.75;5473152;26;20012;-73
2024/04/09 08:07:48;;;;;;;11.30;5.30;;;;;;;16.28;37.47;95287.06;5471937;26;20009;-73
2024/04/09 08:10:13;;;;;;;7.93;3.97;;;;;;;16.41;37.22;95284.91;5473143;26;20077;-74
2024/04/09 08:12:49;;;;;;;9.93;4.50;;;;;;;16.51;37.28;95289.16;5472338;26;20009;-73
2024/04/09 08:15:18;;;;;;;10.98;5.60;;;;;;;16.71;37.34;95275.56;5473994;26;20401;-73
2024/04/09 08:17:44;;;;;;;9.65;3.95;;;;;;;16.87;36.35;95271.66;5476994;25;19994;-73
2024/04/09 08:20:10;;;;;;;8.10;3.72;;;;;;;17.08;35.88;95269.06;5474686;26;20030;-73
2024/04/09 08:22:39;;;;;;;7.20;3.10;;;;;;;17.25;35.03;95267.41;5476797;25;20069;-73
2024/04/09 08:25:05;;;;;;;6.70;3.58;;;;;;;17.46;34.97;95262.81;5474863;26;19994;-73
2024/04/09 08:27:38;;;;;;;6.53;3.47;;;;;;;17.64;34.53;95262.66;5476470;26;20026;-73
2024/04/09 08:30:07;;;;;;;9.20;3.80;;;;;;;17.79;33.98;95262.75;5475632;26;20062;-73
2024/04/09 08:32:33;;;;;;;9.48;4.72;;;;;;;18.01;33.87;95259.63;5474852;26;20050;-73
2024/04/09 08:34:59;;;;;;;8.73;4.35;;;;;;;18.20;33.40;95252.63;5476117;26;20456;-73
2024/04/09 08:37:24;;;;;;;9.95;3.58;;;;;;;18.39;33.08;95250.41;5474408;25;20382;-72
2024/04/09 08:39:54;;;;;;;7.60;3.45;;;;;;;18.55;32.97;95252.69;5476031;26;20005;-72
2024/04/09 08:42:28;;;;;;;7.78;3.20;;;;;;;18.83;32.34;95241.25;5472425;26;20500;-74
2024/04/09 08:44:58;;;;;;;4.35;2.92;;;;;;;18.99;31.98;95232.38;5475613;26;20009;-73
2024/04/09 08:47:24;;;;;;;7.32;3.00;;;;;;;19.27;31.33;95243.91;5475214;26;19998;-73
2024/04/09 08:49:50;;;;;;;6.18;2.80;;;;;;;19.55;30.62;95233.09;5474360;26;20006;-73
2024/04/09 08:52:18;;;;;;;5.82;3.22;;;;;;;19.80;30.16;95228.88;5475323;26;20023;-72
2024/04/09 08:54:43;;;;;;;6.00;2.88;;;;;;;20.04;30.35;95233.41;5473936;25;19998;-73
2024/04/09 08:57:09;;;;;;;8.20;3.47;;;;;;;20.26;29.99;95227.28;5475575;26;19994;-72
2024/04/09 08:59:35;;;;;;;10.05;2.60;;;;;;;20.51;29.41;95222.94;5474035;26;19995;-72
2024/04/09 09:02:12;;;;;;;7.43;2.25;;;;;;;20.80;28.46;95219.88;5476167;26;19998;-73
2024/04/09 09:04:39;;;;;;;4.28;2.20;;;;;;;21.04;28.17;95219.50;5476235;26;19994;-72
2024/04/09 09:07:12;;;;;;;5.18;2.00;;;;;;;21.21;28.18;95216.81;5474112;26;20013;-72
2024/04/09 09:09:37;;;;;;;6.03;2.10;;;;;;;21.51;27.76;95211.66;5476107;26;19994;-73
2024/04/09 09:12:04;;;;;;;5.57;1.92;;;;;;;21.83;27.43;95217.09;5471835;25;20030;-73
2024/04/09 09:14:32;;;;;;;3.17;1.40;;;;;;;22.09;25.89;95214.13;5476403;26;19995;-73
2024/04/09 09:17:05;;;;;;;2.92;1.70;;;;;;;22.27;25.94;95217.22;5473922;25;20009;-73
2024/04/09 09:19:32;;;;;;;4.18;1.60;;;;;;;22.52;25.78;95206.28;5475324;25;20290;-73
2024/04/09 09:22:04;;;;;;;5.85;1.80;;;;;;;22.84;25.61;95203.97;5475864;25;19998;-73
2024/04/09 09:24:30;;;;;;;3.85;1.95;;;;;;;23.14;25.37;95211.84;5473904;26;20085;-73
2024/04/09 09:26:59;;;;;;;4.45;2.15;;;;;;;23.44;25.10;95206.41;5475689;26;20491;-73
2024/04/09 09:29:24;;;;;;;4.30;1.90;;;;;;;23.72;24.75;95200.69;5473805;26;20027;-73
2024/04/09 09:31:50;;;;;;;3.80;1.83;;;;;;;24.02;24.29;95197.97;5475606;25;20002;-72
2024/04/09 09:34:17;;;;;;;6.63;1.80;;;;;;;24.20;23.75;95191.75;5474154;26;20012;-74
2024/04/09 09:36:44;;;;;;;4.95;1.60;;;;;;;24.52;24.04;95191.28;5474923;26;20026;-72
2024/04/09 09:39:14;;;;;;;4.85;2.13;;;;;;;24.83;23.56;95184.34;5474857;26;19994;-74
2024/04/09 09:41:41;;;;;;;7.10;1.55;;;;;;;25.12;22.11;95174.41;5472355;26;19994;-72
2024/04/09 09:44:07;;;;;;;2.78;1.55;;;;;;;25.34;22.08;95185.38;5443247;26;19998;-72
2024/04/09 09:46:33;;;;;;;3.25;1.60;;;;;;;25.67;22.00;95177.84;5472933;26;20028;-73
2024/04/09 09:48:59;;;;;;;4.47;1.30;;;;;;;25.86;21.38;95173.03;5473251;26;20064;-72
2024/04/09 09:51:24;;;;;;;2.80;1.23;;;;;;;25.94;20.81;95173.16;5468033;26;19998;-73
2024/04/09 09:53:50;;;;;;;3.13;1.33;;;;;;;26.21;20.96;95159.97;5440086;26;20468;-73
2024/04/09 09:56:16;;;;;;;2.30;1.60;;;;;;;26.45;20.73;95165.50;5471211;25;20014;-73
2024/04/09 09:58:41;;;;;;;2.65;1.20;;;;;;;26.73;20.48;95165.03;5469288;25;19998;-74
2024/04/09 10:01:08;;;;;;;5.40;1.80;;;;;;;27.09;20.66;95155.47;5472521;26;20009;-74
2024/04/09 10:03:34;;;;;;;2.35;1.40;;;;;;;27.37;19.66;95147.22;5471220;26;20656;-74
2024/04/09 10:05:59;;;;;;;3.22;1.20;;;;;;;27.63;18.80;95149.22;5474908;26;20006;-73
2024/04/09 10:08:28;;;;;;;3.97;1.38;;;;;;;27.90;18.55;95154.88;5473127;25;19994;-74
2024/04/09 10:10:54;;;;;;;5.55;1.63;;;;;;;28.13;18.14;95141.00;5475119;26;19994;-73
2024/04/09 10:13:23;;;;;;;3.67;1.52;;;;;;;28.38;18.14;95147.84;5473712;25;19995;-73
2024/04/09 10:15:49;;;;;;;5.50;2.63;;;;;;;28.69;18.27;95145.31;5473870;25;20065;-73
2024/04/09 10:18:28;;;;;;;2.17;1.70;;;;;;;28.97;17.70;95147.47;5474677;26;20006;-73
2024/04/09 10:20:54;;;;;;;3.30;1.10;;;;;;;29.26;17.75;95142.56;5473223;26;20070;-73
2024/04/09 10:23:20;;;;;;;5.85;1.33;;;;;;;29.58;17.24;95142.19;5474619;26;20506;-73
2024/04/09 10:25:46;;;;;;;3.90;1.67;;;;;;;29.93;16.79;95139.88;5473112;26;19994;-74
2024/04/09 10:28:26;;;;;;;6.78;1.58;;;;;;;30.25;16.04;95128.84;5473077;26;20010;-73
2024/04/09 10:30:52;;;;;;;8.20;2.72;;;;;;;30.21;15.43;95125.63;5474529;26;19999;-72
2024/04/09 10:33:26;;;;;;;4.13;2.22;;;;;;;30.48;15.54;95131.72;5473008;25;20381;-73
2024/04/09 10:35:55;;;;;;;4.38;1.70;;;;;;;30.79;15.14;95112.66;5474716;26;19998;-74
2024/04/09 10:38:22;;;;;;;8.88;3.20;;;;;;;31.16;14.78;95113.19;5471730;25;20010;-72
2024/04/09 10:40:49;;;;;;;3.42;1.00;;;;;;;31.62;13.45;95116.69;5472744;26;20417;-72
2024/04/09 10:43:14;;;;;;;3.95;1.00;;;;;;;32.08;13.27;95110.84;5472425;25;20379;-74
2024/04/09 10:45:41;;;;;;;2.60;0.90;;;;;;;32.74;12.75;95103.75;5474131;26;20005;-74
2024/04/09 10:48:07;;;;;;;4.72;1.13;;;;;;;33.52;12.13;95111.03;5473729;26;20002;-73
2024/04/09 10:50:33;;;;;;;2.92;0.98;;;;;;;34.30;11.44;95115.22;5472334;26;19998;-74
2024/04/09 10:52:59;;;;;;;5.32;1.50;;;;;;;34.96;10.97;95103.97;5474353;26;19998;-72
2024/04/09 10:55:24;;;;;;;2.05;0.90;;;;;;;35.48;9.85;95100.75;5472395;25;19994;-74
2024/04/09 10:57:51;;;;;;;6.85;1.42;;;;;;;36.21;9.03;95098.94;5474359;26;20039;-73
2024/04/09 11:00:17;;;;;;;4.63;1.67;;;;;;;36.99;8.47;95100.16;5471750;25;20065;-73
2024/04/09 11:02:43;;;;;;;2.38;0.77;;;;;;;37.51;8.30;95092.91;5474079;26;19998;-73
2024/04/09 11:05:10;;;;;;;1.77;0.90;;;;;;;38.29;8.02;95093.75;5473366;26;20450;-74
2024/04/09 11:07:37;;;;;;;3.85;1.00;;;;;;;38.89;7.39;95090.38;5471437;25;19998;-73
2024/04/09 11:10:03;;;;;;;4.78;0.88;;;;;;;39.15;7.53;95088.31;5474063;26;19999;-74
2024/04/09 11:12:30;;;;;;;1.90;0.82;;;;;;;39.80;7.97;95086.47;5472249;25;20037;-73
2024/04/09 11:14:57;;;;;;;4.45;1.10;;;;;;;40.45;7.09;95089.41;5472401;26;19998;-74
2024/04/09 11:17:23;;;;;;;1.85;0.70;;;;;;;41.03;6.49;95082.47;5471702;25;20449;-74
2024/04/09 11:19:48;;;;;;;4.13;1.08;;;;;;;41.56;6.40;95081.59;5474235;26;20005;-73
2024/04/09 11:22:14;;;;;;;2.13;0.90;;;;;;;41.89;6.44;95075.34;5472992;26;19997;-74
2024/04/09 11:24:40;;;;;;;1.27;0.82;;;;;;;41.38;5.58;95067.00;5473091;26;20467;-74
2024/04/09 11:27:09;;;;;;;1.35;0.73;;;;;;;40.31;6.78;95056.94;5471872;25;20006;-74
2024/04/09 11:29:35;;;;;;;2.15;1.20;;;;;;;39.29;6.01;95062.59;5471679;26;20317;-73